Time;durP1;ratioP1;P1;durP2;ratioP2;P2;SDS_P1;SDS_P2;PMS_P1;PMS_P2;Temp;Humidity;BMP_temperature;BMP_pressure;BME280_temperature;BME280_humidity;BME280_pressure;Samples;Min_cycle;Max_cycle;Signal;HPM_P1;HPM_P2
2022/04/17 00:02:34;;;;;;;16.15;3.10;;;;;;;12.23;100.00;101183.59;5033322;28;20030;-79
2022/04/17 00:05:20;;;;;;;12.68;3.13;;;;;;;12.28;100.00;101187.00;5032465;28;20033;-78
2022/04/17 00:08:06;;;;;;;17.70;3.08;;;;;;;12.26;100.00;101219.44;5031808;28;20032;-78
2022/04/17 00:10:52;;;;;;;10.80;2.80;;;;;;;11.73;100.00;101217.63;5032252;28;20109;-78
2022/04/17 00:13:38;;;;;;;11.18;2.78;;;;;;;11.68;100.00;101219.47;5033649;28;20095;-78
2022/04/17 00:16:24;;;;;;;11.10;2.60;;;;;;;11.69;100.00;101231.69;5032722;28;20029;-78
2022/04/17 00:19:10;;;;;;;8.95;2.80;;;;;;;11.62;100.00;101232.66;5032788;28;20045;-78
2022/04/17 00:21:55;;;;;;;10.57;3.40;;;;;;;11.48;100.00;101231.94;5032696;28;20064;-79
2022/04/17 00:24:42;;;;;;;15.60;3.10;;;;;;;11.64;100.00;101220.38;5033222;28;20031;-78
2022/04/17 00:27:28;;;;;;;14.10;3.13;;;;;;;11.61;100.00;101220.44;5032973;28;20040;-78
2022/04/17 00:30:13;;;;;;;12.50;3.08;;;;;;;11.72;100.00;101239.53;5032444;28;20489;-78
2022/04/17 00:32:59;;;;;;;13.10;3.53;;;;;;;11.43;100.00;101232.88;5032520;28;20036;-77
2022/04/17 00:35:45;;;;;;;9.85;3.33;;;;;;;11.24;100.00;101242.75;5033414;28;20029;-78
2022/04/17 00:38:31;;;;;;;7.40;2.78;;;;;;;11.19;100.00;101238.44;5032429;28;20017;-78
2022/04/17 00:41:16;;;;;;;24.98;3.95;;;;;;;11.20;100.00;101225.31;5032202;28;20022;-78
2022/04/17 00:44:02;;;;;;;6.75;2.90;;;;;;;11.53;100.00;101245.88;5032238;28;20040;-78
2022/04/17 00:46:48;;;;;;;7.25;2.90;;;;;;;11.26;100.00;101250.59;5032469;28;20050;-79
2022/04/17 00:49:34;;;;;;;8.57;3.30;;;;;;;11.22;100.00;101256.75;5033486;28;20035;-79
2022/04/17 00:52:20;;;;;;;5.63;2.70;;;;;;;10.99;100.00;101250.91;5032289;28;20025;-78
2022/04/17 00:55:08;;;;;;;6.15;3.15;;;;;;;11.44;100.00;101259.09;5033310;28;20099;-78
2022/04/17 00:57:53;;;;;;;10.55;2.78;;;;;;;11.39;100.00;101253.06;5032408;28;20029;-79
2022/04/17 01:00:41;;;;;;;12.27;2.97;;;;;;;11.68;100.00;101248.34;5031913;28;20409;-79
2022/04/17 01:03:28;;;;;;;12.75;3.40;;;;;;;11.54;100.00;101258.09;5032583;28;20029;-78
2022/04/17 01:06:14;;;;;;;9.02;3.10;;;;;;;11.36;100.00;101266.19;5032940;28;20030;-79
2022/04/17 01:09:00;;;;;;;12.20;3.08;;;;;;;11.30;100.00;101271.53;5032921;28;20091;-78
2022/04/17 01:11:48;;;;;;;5.45;3.10;;;;;;;11.24;100.00;101254.97;5034260;28;20038;-77
2022/04/17 01:14:39;;;;;;;12.23;3.45;;;;;;;10.95;100.00;101268.41;5032692;28;20033;-77
2022/04/17 01:17:24;;;;;;;11.60;3.15;;;;;;;11.05;100.00;101266.56;5034084;28;20022;-78
2022/04/17 01:20:11;;;;;;;6.65;3.58;;;;;;;10.85;100.00;101273.78;5032172;28;20033;-79
2022/04/17 01:29:05;;;;;;;5.57;2.95;;;;;;;11.32;100.00;101276.75;5032186;28;20048;-78
2022/04/17 01:31:52;;;;;;;7.18;3.03;;;;;;;11.41;100.00;101288.00;5036535;28;20037;-78
2022/04/17 01:34:38;;;;;;;9.90;3.00;;;;;;;11.27;100.00;101294.28;5036025;28;20117;-81
2022/04/17 01:37:24;;;;;;;6.75;2.90;;;;;;;11.32;100.00;101282.00;5035181;28;20029;-81
2022/04/17 01:40:10;;;;;;;11.82;3.22;;;;;;;11.21;100.00;101279.50;5035905;28;20026;-79
2022/04/17 01:42:56;;;;;;;5.63;3.20;;;;;;;10.76;100.00;101279.97;5035614;28;20103;-79
2022/04/17 01:45:41;;;;;;;9.88;3.80;;;;;;;10.94;100.00;101268.44;5036362;28;20057;-79
2022/04/17 01:48:27;;;;;;;10.15;3.22;;;;;;;10.52;100.00;101263.59;5035177;28;20045;-79
2022/04/17 01:51:13;;;;;;;15.65;3.40;;;;;;;10.31;100.00;101253.28;5036006;28;20030;-80
2022/04/17 01:53:59;;;;;;;8.70;3.15;;;;;;;9.95;100.00;101236.94;5036274;28;20060;-79
2022/04/17 01:56:48;;;;;;;11.43;3.13;;;;;;;9.93;100.00;101243.06;5035479;28;20099;-80
2022/04/17 01:59:34;;;;;;;12.88;3.45;;;;;;;9.72;100.00;101241.44;5035965;28;20095;-81
2022/04/17 02:02:20;;;;;;;13.68;3.70;;;;;;;9.71;100.00;101244.06;5036833;28;20434;-79
2022/04/17 02:05:06;;;;;;;12.32;4.32;;;;;;;9.56;100.00;101238.91;5043820;28;20425;-80
2022/04/17 02:07:52;;;;;;;16.58;4.57;;;;;;;9.33;100.00;101243.41;5035872;28;20029;-80
2022/04/17 02:10:38;;;;;;;11.68;4.07;;;;;;;9.25;100.00;101245.16;5034987;28;20395;-79
2022/04/17 02:13:23;;;;;;;16.80;5.13;;;;;;;9.12;100.00;101252.19;5035613;28;20029;-79
2022/04/17 02:16:09;;;;;;;14.98;4.18;;;;;;;9.33;100.00;101262.56;5035000;28;20025;-79
2022/04/17 02:18:55;;;;;;;14.43;5.43;;;;;;;9.26;100.00;101258.25;5035112;28;20461;-78
2022/04/17 02:21:41;;;;;;;13.45;4.95;;;;;;;9.72;100.00;101258.88;5034923;28;20472;-80
2022/04/17 02:24:26;;;;;;;16.35;5.22;;;;;;;9.30;100.00;101253.84;5035469;28;20033;-79
2022/04/17 02:27:12;;;;;;;14.70;5.25;;;;;;;9.51;100.00;101264.22;5035334;28;20044;-78
2022/04/17 02:29:58;;;;;;;16.38;5.55;;;;;;;9.40;100.00;101253.81;5034798;28;20457;-78
2022/04/17 02:32:43;;;;;;;15.90;5.40;;;;;;;9.53;100.00;101270.34;5035066;28;20040;-77
2022/04/17 02:35:29;;;;;;;20.15;5.78;;;;;;;9.16;100.00;101281.78;5034989;28;20026;-78
2022/04/17 02:38:15;;;;;;;19.42;5.47;;;;;;;9.12;100.00;101283.53;5035549;28;20108;-77
2022/04/17 02:41:01;;;;;;;17.23;6.13;;;;;;;9.48;100.00;101266.84;5034202;28;20458;-78
2022/04/17 02:43:47;;;;;;;20.30;5.85;;;;;;;9.14;100.00;101265.25;5034816;28;20029;-78
2022/04/17 02:49:37;;;;;;;13.27;6.03;;;;;;;8.95;100.00;101268.78;5035367;28;20029;-79
2022/04/17 02:52:23;;;;;;;19.83;5.70;;;;;;;8.87;100.00;101266.19;5040206;28;20043;-78
2022/04/17 02:55:10;;;;;;;21.05;6.07;;;;;;;8.70;100.00;101260.13;5044113;28;20017;-76
2022/04/17 02:57:56;;;;;;;22.40;7.15;;;;;;;8.68;100.00;101274.91;5041528;28;20036;-78
2022/04/17 03:06:51;;;;;;;20.50;6.70;;;;;;;8.79;100.00;101274.91;5045314;28;20116;-78
2022/04/17 03:09:37;;;;;;;19.92;7.60;;;;;;;8.70;100.00;101273.19;5040136;28;20116;-79
2022/04/17 03:12:23;;;;;;;22.25;7.80;;;;;;;8.89;100.00;101267.03;5042772;28;20053;-78
2022/04/17 03:15:09;;;;;;;22.85;7.68;;;;;;;8.50;100.00;101272.31;5043164;28;20088;-77
2022/04/17 03:17:55;;;;;;;15.00;7.93;;;;;;;8.70;100.00;101277.53;5042966;28;20072;-78
2022/04/17 03:20:41;;;;;;;13.38;7.30;;;;;;;8.71;100.00;101271.41;5041761;28;20025;-78
2022/04/17 03:23:26;;;;;;;15.77;6.97;;;;;;;8.99;100.00;101286.19;5041769;28;20018;-77
2022/04/17 03:26:12;;;;;;;11.20;7.80;;;;;;;8.72;100.00;101299.31;5043160;28;20194;-79
2022/04/17 03:28:59;;;;;;;13.30;8.45;;;;;;;8.53;100.00;101289.72;5040504;28;20348;-80
2022/04/17 03:31:46;;;;;;;16.55;9.60;;;;;;;8.35;100.00;101287.97;5034820;28;20029;-80
2022/04/17 03:34:31;;;;;;;18.60;9.40;;;;;;;8.12;100.00;101294.03;5035451;28;20060;-80
2022/04/17 03:37:17;;;;;;;16.42;10.45;;;;;;;7.65;100.00;101313.88;5036019;28;20067;-78
2022/04/17 03:40:04;;;;;;;18.83;11.05;;;;;;;7.48;100.00;101311.19;5035364;28;20040;-76
2022/04/17 03:42:49;;;;;;;21.05;11.00;;;;;;;7.44;100.00;101312.03;5036086;28;20025;-77
2022/04/17 03:45:35;;;;;;;17.48;12.10;;;;;;;7.52;100.00;101304.28;5035545;28;20021;-78
2022/04/17 03:48:21;;;;;;;15.60;11.25;;;;;;;7.38;100.00;101317.25;5036842;28;20045;-77
2022/04/17 03:51:07;;;;;;;16.42;11.85;;;;;;;7.35;100.00;101324.19;5039715;28;20507;-77
2022/04/17 03:53:52;;;;;;;17.08;11.73;;;;;;;7.66;100.00;101320.84;5040914;28;20033;-79
2022/04/17 03:56:38;;;;;;;16.83;12.25;;;;;;;7.32;100.00;101318.97;5041113;28;20017;-75
2022/04/17 03:59:24;;;;;;;19.48;13.18;;;;;;;7.36;100.00;101326.78;5038023;28;20025;-76
2022/04/17 04:02:09;;;;;;;22.75;14.02;;;;;;;7.29;100.00;101326.75;5036976;28;20059;-76
2022/04/17 04:04:55;;;;;;;21.45;13.40;;;;;;;7.25;100.00;101315.44;5035736;28;20426;-75
2022/04/17 04:07:41;;;;;;;21.15;13.45;;;;;;;6.90;100.00;101324.78;5034256;28;20033;-73
2022/04/17 04:10:27;;;;;;;23.80;14.63;;;;;;;6.82;100.00;101330.78;5032716;28;20476;-74
2022/04/17 04:13:13;;;;;;;23.30;14.68;;;;;;;6.96;100.00;101310.91;5033007;28;20037;-73
2022/04/17 04:15:58;;;;;;;19.63;13.70;;;;;;;6.94;100.00;101326.53;5032953;28;20021;-74
2022/04/17 04:18:44;;;;;;;21.20;15.07;;;;;;;6.99;100.00;101316.16;5035376;28;20029;-73
2022/04/17 04:21:30;;;;;;;23.08;16.67;;;;;;;6.94;100.00;101325.66;5033694;28;20035;-75
2022/04/17 04:24:19;;;;;;;23.17;15.73;;;;;;;6.95;100.00;101317.84;5033418;28;20022;-75
2022/04/17 04:30:09;;;;;;;25.58;13.85;;;;;;;7.14;100.00;101322.31;5033402;28;20033;-73
2022/04/17 04:32:56;;;;;;;31.35;18.05;;;;;;;7.03;100.00;101323.97;5032171;28;20097;-72
2022/04/17 04:35:42;;;;;;;29.58;17.45;;;;;;;7.29;100.00;101322.41;5033205;28;20044;-72
2022/04/17 04:38:28;;;;;;;29.17;18.88;;;;;;;7.09;100.00;101337.06;5032435;28;20029;-72
2022/04/17 04:41:14;;;;;;;26.35;17.67;;;;;;;6.96;100.00;101350.00;5032785;28;20358;-73
2022/04/17 04:43:59;;;;;;;28.83;17.58;;;;;;;6.93;100.00;101349.97;5033019;28;20456;-73
2022/04/17 04:46:45;;;;;;;25.98;16.70;;;;;;;6.83;100.00;101353.38;5032337;28;20104;-72
2022/04/17 04:49:31;;;;;;;21.83;14.45;;;;;;;6.69;100.00;101355.88;5032404;28;20052;-73
2022/04/17 04:52:17;;;;;;;19.05;13.75;;;;;;;6.74;100.00;101343.75;5031800;28;20029;-73
2022/04/17 04:55:04;;;;;;;20.73;13.65;;;;;;;6.72;100.00;101349.81;5032718;28;20037;-74
2022/04/17 04:57:50;;;;;;;23.58;14.70;;;;;;;6.66;100.00;101350.63;5032631;28;20068;-73
2022/04/17 05:00:35;;;;;;;23.73;14.80;;;;;;;6.48;100.00;101347.88;5032735;28;20037;-74
2022/04/17 05:03:21;;;;;;;25.67;13.82;;;;;;;6.41;100.00;101351.28;5031460;28;20048;-73
2022/04/17 05:06:07;;;;;;;22.88;15.23;;;;;;;6.48;100.00;101345.28;5035862;28;20017;-73
2022/04/17 05:08:53;;;;;;;23.15;15.27;;;;;;;6.61;100.00;101356.66;5036400;28;20343;-72
2022/04/17 05:11:40;;;;;;;23.42;15.75;;;;;;;6.60;100.00;101352.31;5036589;28;20030;-73
2022/04/17 05:14:29;;;;;;;22.85;15.80;;;;;;;6.57;100.00;101347.94;5035499;28;20431;-73
2022/04/17 05:17:14;;;;;;;24.50;16.23;;;;;;;6.52;100.00;101353.97;5036628;28;20048;-72
2022/04/17 05:20:00;;;;;;;22.63;15.98;;;;;;;6.32;100.00;101351.19;5036417;28;20029;-73
2022/04/17 05:22:50;;;;;;;23.00;16.20;;;;;;;6.26;100.00;101368.47;5035436;28;20036;-73
2022/04/17 05:25:35;;;;;;;23.67;15.77;;;;;;;6.29;100.00;101355.47;5036564;28;20450;-73
2022/04/17 05:28:22;;;;;;;25.95;16.30;;;;;;;6.44;100.00;101358.22;5035667;28;20029;-73
2022/04/17 05:31:08;;;;;;;23.20;16.10;;;;;;;6.68;100.00;101363.66;5035539;28;20116;-73
2022/04/17 05:33:54;;;;;;;24.13;16.08;;;;;;;6.67;100.00;101367.13;5035036;28;20465;-72
2022/04/17 05:36:39;;;;;;;24.13;16.60;;;;;;;6.82;100.00;101351.59;5036394;28;20036;-73
2022/04/17 05:39:25;;;;;;;25.92;16.90;;;;;;;6.44;100.00;101338.28;5035353;28;20450;-73
2022/04/17 05:42:13;;;;;;;26.90;18.52;;;;;;;6.74;100.00;101348.94;5035619;28;20033;-74
2022/04/17 05:44:59;;;;;;;27.58;17.75;;;;;;;6.55;100.00;101339.25;5035424;28;20520;-72
2022/04/17 05:47:45;;;;;;;26.08;17.05;;;;;;;6.68;100.00;101335.91;5036710;28;20050;-71
2022/04/17 05:50:31;;;;;;;24.25;17.60;;;;;;;6.86;100.00;101343.84;5034890;28;20029;-72
2022/04/17 05:53:17;;;;;;;24.98;17.27;;;;;;;6.42;100.00;101337.41;5035290;28;20026;-71
2022/04/17 05:56:04;;;;;;;29.98;18.00;;;;;;;6.85;100.00;101349.03;5021467;28;20036;-72
2022/04/17 05:58:50;;;;;;;27.73;18.75;;;;;;;6.98;100.00;101343.94;5035509;28;20460;-72
2022/04/17 06:01:36;;;;;;;26.67;16.75;;;;;;;7.00;100.00;101349.16;5035998;28;20100;-72
2022/04/17 06:04:21;;;;;;;29.42;19.35;;;;;;;7.13;100.00;101348.38;5035944;28;20362;-72
2022/04/17 06:07:08;;;;;;;28.88;18.08;;;;;;;6.96;100.00;101339.56;5035359;28;20017;-73
2022/04/17 06:09:54;;;;;;;26.02;18.65;;;;;;;7.14;100.00;101334.47;5034495;28;20454;-72
2022/04/17 06:12:41;;;;;;;24.50;15.70;;;;;;;6.64;100.00;101348.88;5034624;28;20044;-72
2022/04/17 06:15:27;;;;;;;25.30;16.77;;;;;;;6.58;100.00;101334.06;5036141;28;20450;-73
2022/04/17 06:18:13;;;;;;;21.73;16.30;;;;;;;6.94;100.00;101333.47;5035347;28;20055;-72
2022/04/17 06:20:59;;;;;;;22.58;15.02;;;;;;;6.63;100.00;101327.16;5035025;28;20369;-72
2022/04/17 06:23:45;;;;;;;24.25;15.38;;;;;;;6.47;100.00;101337.44;5034948;28;20442;-72
2022/04/17 06:26:32;;;;;;;24.35;16.17;;;;;;;6.67;100.00;101338.50;5034813;28;20039;-72
2022/04/17 06:29:18;;;;;;;21.25;14.85;;;;;;;6.69;100.00;101340.25;5035842;28;20040;-72
2022/04/17 06:32:06;;;;;;;21.02;14.40;;;;;;;6.69;100.00;101331.53;5034299;28;20029;-72
2022/04/17 06:34:52;;;;;;;22.80;13.82;;;;;;;6.70;100.00;101344.59;5035419;28;20021;-72
2022/04/17 06:37:52;;;;;;;21.40;14.52;;;;;;;7.00;100.00;101336.13;5034614;28;20450;-72
2022/04/17 06:40:38;;;;;;;18.10;13.65;;;;;;;7.32;100.00;101350.22;5034307;28;20029;-72
2022/04/17 06:43:24;;;;;;;20.23;13.60;;;;;;;6.81;100.00;101334.25;5034454;28;20030;-72
2022/04/17 06:46:10;;;;;;;23.00;14.98;;;;;;;6.78;100.00;101336.81;5034604;28;20478;-72
2022/04/17 06:48:56;;;;;;;24.60;16.73;;;;;;;6.64;100.00;101344.56;5034232;28;20022;-72
2022/04/17 06:51:42;;;;;;;18.65;12.82;;;;;;;6.77;100.00;101342.91;5034069;28;20432;-72
2022/04/17 06:54:27;;;;;;;17.90;12.05;;;;;;;6.85;100.00;101356.84;5034763;28;20076;-73
2022/04/17 06:57:13;;;;;;;19.27;11.75;;;;;;;6.55;100.00;101367.03;5035536;28;20021;-72
2022/04/17 07:00:10;;;;;;;18.15;12.48;;;;;;;6.54;100.00;101363.53;5034080;28;20038;-73
2022/04/17 07:02:58;;;;;;;18.35;13.05;;;;;;;6.39;100.00;101371.19;5036305;28;20025;-76
2022/04/17 07:05:44;;;;;;;17.92;12.48;;;;;;;6.58;100.00;101373.13;5034770;28;20041;-73
2022/04/17 07:08:30;;;;;;;16.45;12.30;;;;;;;6.58;100.00;101372.22;5034094;28;20025;-73
2022/04/17 07:11:19;;;;;;;15.93;11.23;;;;;;;6.25;100.00;101388.41;5034193;28;20036;-73
2022/04/17 07:14:06;;;;;;;15.50;11.13;;;;;;;6.19;100.00;101383.13;5033198;28;20322;-73
2022/04/17 07:16:52;;;;;;;15.50;10.73;;;;;;;5.99;100.00;101388.97;5033598;28;20026;-72
2022/04/17 07:19:38;;;;;;;16.38;11.57;;;;;;;6.10;100.00;101396.03;5033316;28;20120;-73
2022/04/17 07:22:24;;;;;;;17.17;11.98;;;;;;;6.19;100.00;101392.69;5032719;28;20116;-73
2022/04/17 07:25:11;;;;;;;16.17;10.75;;;;;;;6.18;100.00;101401.34;5033887;28;20044;-73
2022/04/17 07:27:57;;;;;;;14.57;10.02;;;;;;;6.17;100.00;101394.38;5031796;28;20518;-73
2022/04/17 07:30:43;;;;;;;13.70;9.80;;;;;;;6.19;100.00;101410.88;5033401;28;20512;-72
2022/04/17 07:33:29;;;;;;;12.80;9.00;;;;;;;5.96;100.00;101407.13;5033500;28;20033;-72
2022/04/17 07:36:14;;;;;;;14.52;9.43;;;;;;;5.85;100.00;101413.94;5033799;28;20033;-72
2022/04/17 07:39:00;;;;;;;12.80;8.70;;;;;;;6.04;100.00;101409.00;5032578;28;20036;-72
2022/04/17 07:41:46;;;;;;;12.50;9.45;;;;;;;5.96;100.00;101405.44;5032754;28;20100;-72
2022/04/17 07:44:32;;;;;;;13.85;9.38;;;;;;;6.02;100.00;101422.84;5033419;28;20033;-73
2022/04/17 07:47:19;;;;;;;14.07;9.85;;;;;;;6.32;100.00;101420.56;5032748;28;20477;-74
2022/04/17 07:50:07;;;;;;;13.57;9.55;;;;;;;6.18;100.00;101419.56;5033171;28;20520;-73
2022/04/17 07:52:53;;;;;;;12.70;9.18;;;;;;;6.19;100.00;101419.53;5033071;28;20029;-72
2022/04/17 07:55:39;;;;;;;13.07;9.50;;;;;;;6.23;100.00;101420.47;5032801;28;20025;-73
2022/04/17 07:58:34;;;;;;;14.65;9.38;;;;;;;6.17;100.00;101416.06;5033386;28;20033;-73
2022/04/17 08:01:20;;;;;;;15.35;9.50;;;;;;;6.17;100.00;101417.78;5034203;28;20056;-73
2022/04/17 08:04:06;;;;;;;14.35;9.80;;;;;;;6.37;100.00;101419.75;5032642;28;20029;-72
2022/04/17 08:06:52;;;;;;;12.45;9.23;;;;;;;6.33;100.00;101412.78;5033266;28;20362;-72
2022/04/17 08:09:37;;;;;;;16.50;12.13;;;;;;;6.25;100.00;101405.72;5032324;28;20026;-73
2022/04/17 08:12:23;;;;;;;13.75;9.63;;;;;;;6.33;100.00;101398.88;5032443;28;20357;-74
2022/04/17 08:15:09;;;;;;;12.13;9.15;;;;;;;6.17;100.00;101402.19;5033275;28;20025;-73
2022/04/17 08:17:55;;;;;;;12.57;8.80;;;;;;;5.97;100.00;101401.06;5033513;28;20037;-73
2022/04/17 08:20:41;;;;;;;14.38;9.20;;;;;;;6.17;100.00;101405.66;5032564;28;20025;-73
2022/04/17 08:23:28;;;;;;;11.95;8.45;;;;;;;6.07;100.00;101408.16;5032156;28;20080;-72
2022/04/17 08:26:13;;;;;;;11.00;7.95;;;;;;;6.21;100.00;101410.03;5033396;28;20420;-74
2022/04/17 08:28:59;;;;;;;13.55;9.05;;;;;;;6.22;100.00;101421.34;5032759;28;20458;-72
2022/04/17 08:31:45;;;;;;;9.82;7.25;;;;;;;5.78;100.00;101412.94;5032895;28;20040;-73
2022/04/17 08:34:30;;;;;;;8.73;6.40;;;;;;;5.66;100.00;101407.59;5032218;28;20029;-74
2022/04/17 08:37:16;;;;;;;10.63;7.55;;;;;;;5.50;100.00;101423.81;5032492;28;20040;-73
2022/04/17 08:40:04;;;;;;;14.02;8.25;;;;;;;5.39;100.00;101423.69;5034610;28;20440;-72
2022/04/17 08:42:50;;;;;;;10.77;8.38;;;;;;;5.34;100.00;101414.94;5037342;28;20365;-73
2022/04/17 08:45:37;;;;;;;16.30;11.93;;;;;;;5.55;100.00;101413.50;5037124;28;20031;-71
2022/04/17 08:48:23;;;;;;;13.50;9.57;;;;;;;5.59;100.00;101417.91;5039706;28;20045;-73
2022/04/17 08:51:09;;;;;;;15.05;10.52;;;;;;;5.76;100.00;101421.59;5036297;28;20057;-73
2022/04/17 08:53:56;;;;;;;13.27;9.60;;;;;;;5.98;100.00;101406.31;5036613;28;20025;-72
2022/04/17 08:56:42;;;;;;;9.63;7.53;;;;;;;5.71;100.00;101411.16;5036516;28;20037;-72
2022/04/17 08:59:28;;;;;;;9.95;6.40;;;;;;;5.64;100.00;101411.91;5037302;28;20029;-73
2022/04/17 09:02:16;;;;;;;12.15;7.40;;;;;;;5.46;100.00;101409.03;5036031;28;20026;-72
2022/04/17 09:05:06;;;;;;;13.45;7.28;;;;;;;5.50;100.00;101403.03;5036122;28;20112;-70
2022/04/17 09:07:56;;;;;;;9.20;6.93;;;;;;;5.42;100.00;101415.03;5037326;28;20076;-71
2022/04/17 09:10:52;;;;;;;11.80;6.97;;;;;;;5.36;100.00;101422.78;5035911;28;20032;-74
2022/04/17 09:13:40;;;;;;;10.75;6.88;;;;;;;5.43;100.00;101418.53;5035821;28;20022;-73
2022/04/17 09:16:35;;;;;;;9.93;6.90;;;;;;;5.25;100.00;101404.44;5036653;28;20108;-74
2022/04/17 09:19:25;;;;;;;9.00;6.35;;;;;;;5.36;100.00;101415.81;5035922;28;20365;-73
2022/04/17 09:22:12;;;;;;;10.30;7.00;;;;;;;5.47;100.00;101419.47;5035335;28;20025;-76
2022/04/17 09:25:11;;;;;;;9.23;6.78;;;;;;;5.52;100.00;101414.34;5035809;28;20021;-77
2022/04/17 09:28:02;;;;;;;10.55;6.80;;;;;;;5.44;100.00;101409.00;5035626;28;20033;-74
2022/04/17 09:30:48;;;;;;;10.50;6.90;;;;;;;5.49;100.00;101424.69;5035169;28;20477;-76
2022/04/17 09:33:39;;;;;;;7.93;5.97;;;;;;;5.50;100.00;101418.63;5035791;28;20029;-76
2022/04/17 09:36:33;;;;;;;10.05;6.72;;;;;;;5.36;100.00;101415.81;5035208;28;20036;-73
2022/04/17 09:39:20;;;;;;;9.45;6.82;;;;;;;5.41;100.00;101408.09;5036566;28;20037;-73
2022/04/17 09:42:07;;;;;;;9.98;7.35;;;;;;;5.74;100.00;101407.72;5035202;28;20445;-71
2022/04/17 09:44:57;;;;;;;10.10;7.03;;;;;;;5.35;100.00;101415.84;5035441;28;20025;-72
2022/04/17 09:47:56;;;;;;;12.82;7.18;;;;;;;5.47;100.00;101420.31;5034826;28;20065;-71
2022/04/17 09:50:42;;;;;;;11.40;7.53;;;;;;;5.44;100.00;101413.34;5034704;28;20034;-72
2022/04/17 09:53:37;;;;;;;9.10;6.50;;;;;;;5.51;100.00;101409.13;5034808;28;20037;-73
2022/04/17 09:56:55;;;;;;;10.25;6.97;;;;;;;5.26;100.00;101403.56;5035930;28;20032;-71
2022/04/17 09:59:41;;;;;;;10.70;7.55;;;;;;;5.57;100.00;101414.38;5035900;28;20350;-71
2022/04/17 10:02:27;;;;;;;8.40;6.35;;;;;;;5.56;100.00;101397.06;5034618;28;20372;-71
2022/04/17 10:05:19;;;;;;;9.95;6.82;;;;;;;5.36;100.00;101400.25;5034610;28;20025;-71
2022/04/17 10:08:08;;;;;;;10.35;6.78;;;;;;;5.56;100.00;101403.13;5035764;28;20033;-72
2022/04/17 10:10:54;;;;;;;8.75;6.85;;;;;;;5.77;100.00;101405.13;5035007;28;20029;-72
2022/04/17 10:13:40;;;;;;;12.45;6.70;;;;;;;5.66;100.00;101399.78;5035091;28;20450;-72
2022/04/17 10:16:30;;;;;;;12.15;7.60;;;;;;;5.61;100.00;101405.78;5035103;28;20045;-72
2022/04/17 10:19:17;;;;;;;12.02;6.18;;;;;;;5.53;100.00;101416.09;5035423;28;20021;-74
2022/04/17 10:22:05;;;;;;;9.48;6.25;;;;;;;5.40;100.00;101406.38;5035072;28;20035;-72
2022/04/17 10:24:51;;;;;;;11.23;7.88;;;;;;;5.33;100.00;101400.22;5035312;28;20134;-72
2022/04/17 10:27:48;;;;;;;15.32;8.95;;;;;;;5.82;100.00;101399.16;5034267;28;20029;-72
2022/04/17 10:30:37;;;;;;;9.40;6.75;;;;;;;5.63;100.00;101389.38;5034914;28;20167;-72
2022/04/17 10:34:07;;;;;;;9.13;7.03;;;;;;;5.83;100.00;101387.06;5034395;28;20029;-73
2022/04/17 10:37:46;;;;;;;10.40;6.88;;;;;;;5.94;100.00;101380.25;5034776;28;20037;-72
2022/04/17 10:40:33;;;;;;;10.32;7.03;;;;;;;5.65;100.00;101382.44;5012885;28;20040;-71
2022/04/17 10:43:19;;;;;;;10.05;7.75;;;;;;;5.53;100.00;101377.09;5034454;28;20036;-74
2022/04/17 10:46:17;;;;;;;18.23;9.57;;;;;;;5.48;100.00;101377.03;5033202;28;20053;-72
2022/04/17 10:49:04;;;;;;;30.52;17.20;;;;;;;5.53;100.00;101371.00;5034438;28;20032;-73
2022/04/17 10:51:55;;;;;;;17.67;9.43;;;;;;;5.56;100.00;101363.25;5034936;28;20036;-71
2022/04/17 10:54:53;;;;;;;17.30;10.77;;;;;;;5.49;100.00;101367.50;5034391;28;20029;-71
2022/04/17 10:57:46;;;;;;;10.20;6.28;;;;;;;5.44;100.00;101359.66;5034624;28;20025;-72
2022/04/17 11:00:38;;;;;;;11.65;7.80;;;;;;;5.54;100.00;101357.19;5034528;28;20022;-79
2022/04/17 11:03:26;;;;;;;8.98;6.40;;;;;;;5.50;100.00;101345.88;5034449;28;20025;-73
2022/04/17 11:06:33;;;;;;;8.63;6.05;;;;;;;5.31;100.00;101333.50;5047004;28;20029;-78
2022/04/17 11:09:24;;;;;;;8.55;6.72;;;;;;;5.50;100.00;101343.25;5034047;28;20340;-74
2022/04/17 11:12:18;;;;;;;11.55;7.18;;;;;;;5.47;100.00;101350.16;5033963;28;20025;-75
2022/04/17 11:15:04;;;;;;;9.52;6.57;;;;;;;6.04;100.00;101337.88;5033798;28;20033;-76
2022/04/17 11:17:51;;;;;;;7.10;5.13;;;;;;;5.47;100.00;101321.56;5034054;28;20110;-75
2022/04/17 11:20:38;;;;;;;7.18;5.03;;;;;;;5.48;100.00;101321.59;5034223;28;20098;-76
2022/04/17 11:24:00;;;;;;;5.75;4.60;;;;;;;2.72;100.00;109386.53;5034554;28;20126;-75
2022/04/17 11:26:55;;;;;;;6.72;5.20;;;;;;;5.30;100.00;101314.44;4961198;28;20038;-76
2022/04/17 11:29:48;;;;;;;6.80;5.20;;;;;;;5.51;100.00;101318.16;5034111;28;20044;-76
2022/04/17 11:32:34;;;;;;;7.07;5.68;;;;;;;5.81;100.00;101319.44;5034092;28;20346;-74
2022/04/17 11:35:22;;;;;;;7.95;5.22;;;;;;;5.96;100.00;101316.13;5033137;28;20481;-74
2022/04/17 11:38:08;;;;;;;6.60;5.05;;;;;;;5.80;100.00;101327.16;5034181;28;20033;-75
2022/04/17 11:40:54;;;;;;;5.63;4.63;;;;;;;5.40;100.00;101331.03;5032643;28;20022;-74
2022/04/17 11:43:59;;;;;;;7.45;4.65;;;;;;;5.67;100.00;101333.09;5033489;28;20056;-74
2022/04/17 11:46:45;;;;;;;5.88;4.57;;;;;;;5.38;100.00;101323.19;5033124;28;20045;-74
2022/04/17 11:49:32;;;;;;;5.85;4.93;;;;;;;5.46;100.00;101327.63;5032071;28;20464;-74
2022/04/17 11:52:20;;;;;;;6.38;4.78;;;;;;;5.96;100.00;101322.22;5032915;28;20029;-74
2022/04/17 11:55:07;;;;;;;6.60;5.10;;;;;;;5.49;100.00;101315.53;5032864;28;20033;-74
2022/04/17 11:57:53;;;;;;;7.68;5.60;;;;;;;5.79;100.00;101317.63;5033346;28;20468;-75
2022/04/17 12:00:40;;;;;;;4.88;4.22;;;;;;;5.74;100.00;101317.56;5033309;28;20361;-75
2022/04/17 12:03:34;;;;;;;5.30;4.20;;;;;;;5.41;100.00;101322.38;5032630;28;20048;-74
2022/04/17 12:06:25;;;;;;;10.50;6.05;;;;;;;5.29;100.00;101328.28;5033589;28;20029;-75
2022/04/17 12:09:15;;;;;;;8.02;5.47;;;;;;;5.51;100.00;101323.34;5032914;28;20496;-74
2022/04/17 12:12:01;;;;;;;4.90;4.18;;;;;;;5.35;100.00;101336.16;5034401;28;20029;-76
2022/04/17 12:14:53;;;;;;;7.95;5.53;;;;;;;5.37;100.00;101325.78;5032677;28;20502;-74
2022/04/17 12:17:39;;;;;;;7.47;5.82;;;;;;;5.67;100.00;101322.69;5033957;28;20033;-76
2022/04/17 12:20:26;;;;;;;7.70;6.25;;;;;;;6.03;100.00;101324.00;5032007;28;20021;-76
2022/04/17 12:23:13;;;;;;;6.88;5.43;;;;;;;5.56;100.00;101306.09;5032633;28;20056;-71
2022/04/17 12:26:01;;;;;;;8.13;5.72;;;;;;;5.46;100.00;101310.28;5032459;28;20104;-70
2022/04/17 12:28:47;;;;;;;6.40;4.75;;;;;;;5.46;100.00;101318.09;5032879;28;20328;-71
2022/04/17 12:31:36;;;;;;;7.18;5.32;;;;;;;5.76;100.00;101317.59;5033410;28;20120;-71
2022/04/17 12:34:23;;;;;;;5.88;4.35;;;;;;;5.28;100.00;101315.28;5031655;28;20087;-72
2022/04/17 12:37:24;;;;;;;7.32;4.53;;;;;;;5.33;100.00;101304.09;5033046;28;20037;-71
2022/04/17 12:40:21;;;;;;;6.60;5.13;;;;;;;5.46;100.00;101299.06;5032423;28;20029;-73
2022/04/17 12:43:30;;;;;;;8.80;6.43;;;;;;;5.44;100.00;101299.88;5032391;28;20446;-72
2022/04/17 12:46:30;;;;;;;6.75;4.57;;;;;;;5.32;100.00;101299.72;5032850;28;20061;-71
2022/04/17 12:49:22;;;;;;;9.02;6.60;;;;;;;5.64;100.00;101296.66;5032500;28;20115;-72
2022/04/17 12:52:08;;;;;;;8.25;5.82;;;;;;;5.43;100.00;101305.94;5032966;28;20516;-73
2022/04/17 12:54:56;;;;;;;9.43;6.10;;;;;;;5.47;100.00;101293.88;5032230;28;20072;-73
2022/04/17 12:57:43;;;;;;;11.48;6.40;;;;;;;5.90;100.00;101290.91;5032223;28;20025;-72
2022/04/17 13:00:30;;;;;;;9.23;5.70;;;;;;;5.64;100.00;101286.25;5032593;28;20018;-71
2022/04/17 13:03:16;;;;;;;12.02;7.75;;;;;;;5.22;100.00;101297.88;5032662;28;20461;-72
2022/04/17 13:06:04;;;;;;;34.20;20.38;;;;;;;5.53;100.00;101298.25;5032688;28;20116;-71
2022/04/17 13:09:13;;;;;;;10.88;7.55;;;;;;;5.36;100.00;101303.25;5031583;28;20347;-71
2022/04/17 13:11:59;;;;;;;10.98;7.00;;;;;;;5.59;100.00;101299.22;5032225;28;20026;-71